RCH3415 EGUN-ENOL
Flight info
| Callsign | RCH3415 |
|---|---|
| Flight time | 2h 50m |
| Altitude | 27000 |
| Route | NUGTU DCT NALAX DCT ROPAL DCT VAXIT DCT KARLI DCT BIVKI DCT ROPNO DCT MAMIP DCT PIGED DCT NELSU |
| Aircraft | C30J/M-SDE2E3FGRY/H |
Departure
| Time | 2026-04-20 14:34 |
|---|---|
| Airport | RAF Mildenhall (EGUN) |
Arrival
| Time | 2026-04-20 17:24 |
|---|---|
| Airport | Ørland Airport (ENOL) |
| Time | Latitude | Longitude | Altitude | Speed | Heading |
|---|---|---|---|---|---|
| 2026-04-20 14:10 | 52.36168 | 0.50238 | 40 ft | 0 kts | 57° |
| 2026-04-20 14:29 | 52.36168 | 0.50237 | 40 ft | 0 kts | 57° |
| 2026-04-20 14:29 | 52.36168 | 0.50239 | 40 ft | 0 kts | 57° |
| 2026-04-20 14:29 | 52.36171 | 0.50246 | 38 ft | 1 kts | 57° |
| 2026-04-20 14:30 | 52.36176 | 0.50258 | 39 ft | 1 kts | 57° |
| 2026-04-20 14:30 | 52.36181 | 0.50272 | 39 ft | 2 kts | 57° |
| 2026-04-20 14:30 | 52.36193 | 0.50349 | 40 ft | 5 kts | 89° |
| 2026-04-20 14:30 | 52.36172 | 0.50519 | 40 ft | 15 kts | 101° |
| 2026-04-20 14:31 | 52.36124 | 0.50639 | 40 ft | 11 kts | 137° |
| 2026-04-20 14:31 | 52.36082 | 0.50669 | 40 ft | 0 kts | 178° |
| 2026-04-20 14:32 | 52.36062 | 0.50665 | 40 ft | 11 kts | 192° |
| 2026-04-20 14:33 | 52.35960 | 0.50634 | 39 ft | 12 kts | 190° |
| 2026-04-20 14:33 | 52.35922 | 0.50571 | 41 ft | 5 kts | 263° |
| 2026-04-20 14:33 | 52.35922 | 0.50570 | 41 ft | 0 kts | 265° |
| 2026-04-20 14:33 | 52.35923 | 0.50536 | 40 ft | 15 kts | 278° |
| 2026-04-20 14:34 | 52.36016 | 0.49914 | 38 ft | 99 kts | 286° |
| 2026-04-20 14:34 | 52.36212 | 0.48480 | 134 ft | 147 kts | 289° |
| 2026-04-20 14:34 | 52.36458 | 0.46805 | 516 ft | 159 kts | 289° |
| 2026-04-20 14:34 | 52.36742 | 0.44967 | 929 ft | 173 kts | 290° |
| 2026-04-20 14:35 | 52.37056 | 0.43013 | 1459 ft | 181 kts | 290° |
| 2026-04-20 14:35 | 52.37636 | 0.41129 | 1732 ft | 199 kts | 317° |
| 2026-04-20 14:35 | 52.38832 | 0.39964 | 1946 ft | 209 kts | 354° |
| 2026-04-20 14:35 | 52.40142 | 0.40502 | 2751 ft | 191 kts | 38° |
| 2026-04-20 14:36 | 52.40814 | 0.42259 | 3644 ft | 182 kts | 64° |
| 2026-04-20 14:36 | 52.41565 | 0.43808 | 4460 ft | 174 kts | 38° |
| 2026-04-20 14:36 | 52.42569 | 0.44961 | 5125 ft | 177 kts | 33° |
| 2026-04-20 14:36 | 52.43632 | 0.46059 | 5770 ft | 180 kts | 33° |
| 2026-04-20 14:37 | 52.44398 | 0.47660 | 6430 ft | 184 kts | 63° |
| 2026-04-20 14:37 | 52.44881 | 0.48789 | 6823 ft | 185 kts | 38° |
| 2026-04-20 14:37 | 52.46027 | 0.49756 | 7455 ft | 187 kts | 20° |
| 2026-04-20 14:37 | 52.47275 | 0.50420 | 8053 ft | 191 kts | 17° |
| 2026-04-20 14:38 | 52.48551 | 0.50913 | 8767 ft | 191 kts | 359° |
| 2026-04-20 14:38 | 52.49742 | 0.50072 | 9478 ft | 195 kts | 317° |
| 2026-04-20 14:38 | 52.50305 | 0.48001 | 10043 ft | 209 kts | 280° |
| 2026-04-20 14:38 | 52.50337 | 0.45583 | 10653 ft | 213 kts | 272° |
| 2026-04-20 14:39 | 52.50285 | 0.43157 | 11296 ft | 213 kts | 272° |
| 2026-04-20 14:39 | 52.50227 | 0.40734 | 11920 ft | 213 kts | 270° |
| 2026-04-20 14:39 | 52.50169 | 0.38309 | 12516 ft | 213 kts | 270° |
| 2026-04-20 14:39 | 52.50111 | 0.35879 | 13125 ft | 213 kts | 271° |
| 2026-04-20 14:40 | 52.50212 | 0.33504 | 13700 ft | 211 kts | 292° |
| 2026-04-20 14:40 | 52.51071 | 0.31631 | 14218 ft | 210 kts | 322° |
| 2026-04-20 14:40 | 52.52289 | 0.30351 | 14689 ft | 212 kts | 328° |
| 2026-04-20 14:40 | 52.53544 | 0.29065 | 15180 ft | 211 kts | 326° |
| 2026-04-20 14:41 | 52.54753 | 0.27708 | 15700 ft | 211 kts | 324° |
| 2026-04-20 14:41 | 52.55967 | 0.26305 | 16134 ft | 215 kts | 324° |
| 2026-04-20 14:41 | 52.57203 | 0.24876 | 16573 ft | 216 kts | 324° |
| 2026-04-20 14:41 | 52.58437 | 0.23455 | 17020 ft | 220 kts | 324° |
| 2026-04-20 14:42 | 52.59686 | 0.22016 | 17473 ft | 220 kts | 324° |
| 2026-04-20 14:42 | 52.60953 | 0.20556 | 17871 ft | 223 kts | 323° |
| 2026-04-20 14:42 | 52.62211 | 0.19106 | 18355 ft | 222 kts | 323° |
| 2026-04-20 14:42 | 52.63488 | 0.17634 | 18739 ft | 224 kts | 323° |
| 2026-04-20 14:43 | 52.64757 | 0.16171 | 19158 ft | 222 kts | 323° |
| 2026-04-20 14:43 | 52.66026 | 0.14707 | 19499 ft | 224 kts | 323° |
| 2026-04-20 14:43 | 52.67317 | 0.13216 | 19795 ft | 227 kts | 323° |
| 2026-04-20 14:43 | 52.68613 | 0.11720 | 20173 ft | 227 kts | 323° |
| 2026-04-20 14:44 | 52.69920 | 0.10211 | 20462 ft | 230 kts | 323° |
| 2026-04-20 14:44 | 52.71286 | 0.08834 | 20801 ft | 232 kts | 339° |
| 2026-04-20 14:44 | 52.72900 | 0.08765 | 21092 ft | 241 kts | 14° |
| 2026-04-20 14:44 | 52.74297 | 0.10341 | 21352 ft | 252 kts | 45° |
| 2026-04-20 14:45 | 52.75384 | 0.12587 | 21639 ft | 254 kts | 47° |
| 2026-04-20 14:45 | 52.76532 | 0.14792 | 21974 ft | 254 kts | 43° |
| 2026-04-20 14:45 | 52.77754 | 0.16899 | 22292 ft | 253 kts | 41° |
| 2026-04-20 14:45 | 52.79032 | 0.18966 | 22594 ft | 254 kts | 39° |
| 2026-04-20 14:46 | 52.80303 | 0.20937 | 22867 ft | 255 kts | 38° |
| 2026-04-20 14:46 | 52.81500 | 0.22755 | 23000 ft | 252 kts | 38° |
| 2026-04-20 14:46 | 52.82801 | 0.24729 | 23037 ft | 255 kts | 38° |
| 2026-04-20 14:46 | 52.84123 | 0.26681 | 23138 ft | 256 kts | 37° |
| 2026-04-20 14:47 | 52.85458 | 0.28631 | 23257 ft | 256 kts | 37° |
| 2026-04-20 14:47 | 52.86794 | 0.30582 | 23378 ft | 257 kts | 37° |
| 2026-04-20 14:47 | 52.88130 | 0.32535 | 23505 ft | 256 kts | 37° |
| 2026-04-20 14:48 | 52.90720 | 0.36448 | 23925 ft | 250 kts | 38° |
| 2026-04-20 14:48 | 52.91995 | 0.38412 | 24036 ft | 249 kts | 38° |
| 2026-04-20 14:48 | 52.93274 | 0.40364 | 24127 ft | 250 kts | 38° |
| 2026-04-20 14:48 | 52.94559 | 0.42301 | 24204 ft | 250 kts | 38° |
| 2026-04-20 14:49 | 52.95856 | 0.44237 | 24285 ft | 251 kts | 37° |
| 2026-04-20 14:49 | 52.97155 | 0.46168 | 24364 ft | 251 kts | 37° |
| 2026-04-20 14:49 | 52.98460 | 0.48103 | 24440 ft | 252 kts | 37° |
| 2026-04-20 14:49 | 52.99760 | 0.50023 | 24645 ft | 244 kts | 37° |
| 2026-04-20 14:50 | 53.00973 | 0.51898 | 25011 ft | 233 kts | 41° |
| 2026-04-20 14:50 | 53.02076 | 0.53774 | 25324 ft | 222 kts | 43° |
| 2026-04-20 14:50 | 53.03107 | 0.55605 | 25615 ft | 210 kts | 43° |
| 2026-04-20 14:50 | 53.04051 | 0.57328 | 25900 ft | 197 kts | 43° |
| 2026-04-20 14:51 | 53.04935 | 0.58977 | 26079 ft | 190 kts | 42° |
| 2026-04-20 14:51 | 53.05890 | 0.60667 | 25774 ft | 207 kts | 43° |
| 2026-04-20 14:51 | 53.06940 | 0.62416 | 25592 ft | 219 kts | 38° |
| 2026-04-20 14:51 | 53.08107 | 0.64072 | 25515 ft | 224 kts | 35° |
| 2026-04-20 14:52 | 53.09303 | 0.65704 | 25623 ft | 221 kts | 36° |
| 2026-04-20 14:52 | 53.10474 | 0.67364 | 25730 ft | 220 kts | 37° |
| 2026-04-20 14:52 | 53.11608 | 0.69078 | 25815 ft | 220 kts | 39° |
| 2026-04-20 14:52 | 53.12718 | 0.70805 | 25864 ft | 220 kts | 39° |
| 2026-04-20 14:53 | 53.13924 | 0.72658 | 25503 ft | 241 kts | 39° |
| 2026-04-20 14:53 | 53.15164 | 0.74546 | 25407 ft | 248 kts | 38° |
| 2026-04-20 14:53 | 53.16453 | 0.76502 | 25353 ft | 253 kts | 39° |
| 2026-04-20 14:53 | 53.17761 | 0.78479 | 25340 ft | 256 kts | 38° |
| 2026-04-20 14:54 | 53.19091 | 0.80486 | 25341 ft | 259 kts | 38° |
| 2026-04-20 14:54 | 53.20432 | 0.82508 | 25337 ft | 262 kts | 39° |
| 2026-04-20 14:54 | 53.21796 | 0.84564 | 25332 ft | 264 kts | 39° |
| 2026-04-20 14:54 | 53.23164 | 0.86628 | 25329 ft | 267 kts | 38° |
| 2026-04-20 14:55 | 53.24545 | 0.88713 | 25322 ft | 269 kts | 39° |
| 2026-04-20 14:55 | 53.25938 | 0.90818 | 25326 ft | 271 kts | 40° |
| 2026-04-20 14:55 | 53.27339 | 0.92937 | 25320 ft | 272 kts | 39° |
| 2026-04-20 14:55 | 53.28749 | 0.95071 | 25320 ft | 274 kts | 39° |
| 2026-04-20 14:56 | 53.30162 | 0.97212 | 25320 ft | 275 kts | 39° |
| 2026-04-20 14:56 | 53.31586 | 0.99371 | 25320 ft | 276 kts | 40° |
| 2026-04-20 14:56 | 53.33011 | 1.01534 | 25319 ft | 277 kts | 40° |
| 2026-04-20 14:56 | 53.34443 | 1.03711 | 25321 ft | 278 kts | 40° |
| 2026-04-20 14:57 | 53.35877 | 1.05893 | 25323 ft | 279 kts | 40° |
| 2026-04-20 14:57 | 53.37330 | 1.08045 | 25310 ft | 279 kts | 33° |
| 2026-04-20 14:57 | 53.39100 | 1.09255 | 25323 ft | 275 kts | 11° |
| 2026-04-20 14:57 | 53.40964 | 1.10009 | 25323 ft | 276 kts | 13° |
| 2026-04-20 14:58 | 53.42803 | 1.10827 | 25319 ft | 277 kts | 14° |
| 2026-04-20 14:58 | 53.44666 | 1.11658 | 25320 ft | 277 kts | 14° |
| 2026-04-20 14:58 | 53.46530 | 1.12498 | 25318 ft | 278 kts | 14° |
| 2026-04-20 14:58 | 53.48404 | 1.13338 | 25317 ft | 278 kts | 14° |
| 2026-04-20 14:59 | 53.50283 | 1.14175 | 25319 ft | 279 kts | 14° |
| 2026-04-20 14:59 | 53.52163 | 1.15018 | 25319 ft | 279 kts | 14° |
| 2026-04-20 14:59 | 53.54048 | 1.15864 | 25318 ft | 280 kts | 14° |
| 2026-04-20 14:59 | 53.55931 | 1.16703 | 25319 ft | 280 kts | 14° |
| 2026-04-20 15:00 | 53.57811 | 1.17549 | 25319 ft | 280 kts | 14° |
| 2026-04-20 15:00 | 53.59674 | 1.18391 | 25320 ft | 280 kts | 14° |
| 2026-04-20 15:00 | 53.61558 | 1.19237 | 25323 ft | 281 kts | 14° |
| 2026-04-20 15:00 | 53.63444 | 1.20090 | 25323 ft | 281 kts | 14° |
| 2026-04-20 15:01 | 53.65332 | 1.20946 | 25321 ft | 281 kts | 14° |
| 2026-04-20 15:01 | 53.67223 | 1.21792 | 25320 ft | 281 kts | 14° |
| 2026-04-20 15:01 | 53.69140 | 1.22653 | 25319 ft | 282 kts | 14° |
| 2026-04-20 15:01 | 53.71010 | 1.23497 | 25319 ft | 282 kts | 14° |
| 2026-04-20 15:02 | 53.72901 | 1.24343 | 25321 ft | 282 kts | 14° |
| 2026-04-20 15:02 | 53.74803 | 1.25181 | 25314 ft | 282 kts | 14° |
| 2026-04-20 15:02 | 53.76711 | 1.25950 | 25315 ft | 283 kts | 14° |
| 2026-04-20 15:02 | 53.78633 | 1.26708 | 25317 ft | 283 kts | 14° |
| 2026-04-20 15:03 | 53.80552 | 1.27464 | 25318 ft | 283 kts | 14° |
| 2026-04-20 15:03 | 53.82476 | 1.28218 | 25317 ft | 284 kts | 14° |
| 2026-04-20 15:03 | 53.84401 | 1.28982 | 25323 ft | 284 kts | 14° |
| 2026-04-20 15:03 | 53.86327 | 1.29746 | 25323 ft | 284 kts | 14° |
| 2026-04-20 15:04 | 53.88258 | 1.30506 | 25320 ft | 285 kts | 14° |
| 2026-04-20 15:04 | 53.90188 | 1.31270 | 25322 ft | 285 kts | 14° |
| 2026-04-20 15:04 | 53.92110 | 1.32032 | 25323 ft | 285 kts | 14° |
| 2026-04-20 15:04 | 53.94039 | 1.32789 | 25324 ft | 285 kts | 14° |
| 2026-04-20 15:05 | 53.95937 | 1.33747 | 25319 ft | 284 kts | 28° |
| 2026-04-20 15:05 | 53.97423 | 1.35878 | 25328 ft | 281 kts | 50° |
| 2026-04-20 15:05 | 53.98648 | 1.38448 | 25327 ft | 282 kts | 52° |
| 2026-04-20 15:05 | 53.99874 | 1.41052 | 25326 ft | 282 kts | 52° |
| 2026-04-20 15:06 | 54.01088 | 1.43621 | 25328 ft | 282 kts | 52° |
| 2026-04-20 15:06 | 54.02332 | 1.46252 | 25328 ft | 282 kts | 52° |
| 2026-04-20 15:06 | 54.03565 | 1.48861 | 25327 ft | 282 kts | 52° |
| 2026-04-20 15:06 | 54.04796 | 1.51467 | 25328 ft | 283 kts | 52° |
| 2026-04-20 15:07 | 54.06026 | 1.54076 | 25321 ft | 283 kts | 52° |
| 2026-04-20 15:07 | 54.07256 | 1.56687 | 25324 ft | 283 kts | 52° |
| 2026-04-20 15:07 | 54.08482 | 1.59298 | 25325 ft | 283 kts | 52° |
| 2026-04-20 15:07 | 54.09694 | 1.61883 | 25323 ft | 282 kts | 53° |
| 2026-04-20 15:08 | 54.10919 | 1.64500 | 25325 ft | 282 kts | 53° |
| 2026-04-20 15:08 | 54.12143 | 1.67119 | 25324 ft | 282 kts | 53° |
| 2026-04-20 15:08 | 54.13368 | 1.69741 | 25323 ft | 282 kts | 53° |
| 2026-04-20 15:08 | 54.14591 | 1.72363 | 25327 ft | 282 kts | 53° |
| 2026-04-20 15:09 | 54.15808 | 1.74976 | 25325 ft | 282 kts | 53° |
| 2026-04-20 15:09 | 54.17022 | 1.77585 | 25324 ft | 282 kts | 53° |
| 2026-04-20 15:09 | 54.18241 | 1.80205 | 25326 ft | 281 kts | 53° |
| 2026-04-20 15:09 | 54.19456 | 1.82820 | 25324 ft | 281 kts | 53° |
| 2026-04-20 15:10 | 54.20674 | 1.85445 | 25325 ft | 281 kts | 53° |
| 2026-04-20 15:10 | 54.21890 | 1.88067 | 25326 ft | 281 kts | 53° |
| 2026-04-20 15:10 | 54.23101 | 1.90682 | 25318 ft | 281 kts | 53° |
| 2026-04-20 15:10 | 54.24319 | 1.93312 | 25321 ft | 281 kts | 55° |
| 2026-04-20 15:11 | 54.25521 | 1.95915 | 25326 ft | 281 kts | 55° |
| 2026-04-20 15:11 | 54.26735 | 1.98545 | 25328 ft | 281 kts | 55° |
| 2026-04-20 15:11 | 54.27944 | 2.01166 | 25328 ft | 281 kts | 55° |
| 2026-04-20 15:11 | 54.29150 | 2.03784 | 25327 ft | 281 kts | 55° |
| 2026-04-20 15:12 | 54.30358 | 2.06407 | 25328 ft | 281 kts | 55° |
| 2026-04-20 15:12 | 54.31567 | 2.09034 | 25326 ft | 281 kts | 55° |
| 2026-04-20 15:12 | 54.32775 | 2.11663 | 25327 ft | 281 kts | 55° |
| 2026-04-20 15:12 | 54.33983 | 2.14292 | 25316 ft | 280 kts | 58° |
| 2026-04-20 15:13 | 54.35188 | 2.16920 | 25326 ft | 280 kts | 58° |
| 2026-04-20 15:13 | 54.36388 | 2.19545 | 25325 ft | 280 kts | 58° |
| 2026-04-20 15:13 | 54.37570 | 2.22132 | 25325 ft | 280 kts | 58° |
| 2026-04-20 15:13 | 54.38770 | 2.24760 | 25323 ft | 279 kts | 58° |
| 2026-04-20 15:14 | 54.39961 | 2.27369 | 25322 ft | 279 kts | 58° |
| 2026-04-20 15:14 | 54.41157 | 2.29991 | 25322 ft | 279 kts | 58° |
| 2026-04-20 15:14 | 54.42352 | 2.32614 | 25319 ft | 279 kts | 58° |
| 2026-04-20 15:14 | 54.43550 | 2.35245 | 25322 ft | 279 kts | 58° |
| 2026-04-20 15:15 | 54.44747 | 2.37877 | 25324 ft | 279 kts | 58° |
| 2026-04-20 15:15 | 54.45550 | 2.39644 | 25323 ft | 279 kts | 58° |
| 2026-04-20 15:15 | 54.47132 | 2.43129 | 25325 ft | 279 kts | 58° |
| 2026-04-20 15:15 | 54.48324 | 2.45758 | 25314 ft | 278 kts | 59° |
| 2026-04-20 15:16 | 54.49514 | 2.48391 | 25323 ft | 278 kts | 59° |
| 2026-04-20 15:16 | 54.50698 | 2.51012 | 25328 ft | 278 kts | 59° |
| 2026-04-20 15:16 | 54.51882 | 2.53636 | 25320 ft | 278 kts | 59° |
| 2026-04-20 15:16 | 54.53068 | 2.56265 | 25330 ft | 278 kts | 59° |
| 2026-04-20 15:17 | 54.54253 | 2.58893 | 25327 ft | 278 kts | 59° |
| 2026-04-20 15:17 | 54.55443 | 2.61531 | 25327 ft | 278 kts | 59° |
| 2026-04-20 15:17 | 54.56627 | 2.64160 | 25329 ft | 278 kts | 59° |
| 2026-04-20 15:17 | 54.57807 | 2.66781 | 25324 ft | 278 kts | 59° |
| 2026-04-20 15:18 | 54.58990 | 2.69412 | 25306 ft | 278 kts | 60° |
| 2026-04-20 15:18 | 54.60172 | 2.72046 | 25321 ft | 277 kts | 60° |
| 2026-04-20 15:18 | 54.61348 | 2.74673 | 25330 ft | 277 kts | 60° |
| 2026-04-20 15:18 | 54.62527 | 2.77308 | 25324 ft | 277 kts | 60° |
| 2026-04-20 15:19 | 54.63706 | 2.79943 | 25341 ft | 277 kts | 60° |
| 2026-04-20 15:19 | 54.64871 | 2.82549 | 25330 ft | 277 kts | 60° |
| 2026-04-20 15:19 | 54.66065 | 2.85222 | 25328 ft | 277 kts | 60° |
| 2026-04-20 15:19 | 54.67241 | 2.87858 | 25324 ft | 277 kts | 60° |
| 2026-04-20 15:20 | 54.68398 | 2.90454 | 25323 ft | 277 kts | 60° |
| 2026-04-20 15:20 | 54.69574 | 2.93095 | 25326 ft | 277 kts | 60° |
| 2026-04-20 15:20 | 54.70749 | 2.95737 | 25328 ft | 277 kts | 60° |
| 2026-04-20 15:20 | 54.71925 | 2.98383 | 25312 ft | 277 kts | 60° |
| 2026-04-20 15:21 | 54.73095 | 3.01021 | 25332 ft | 276 kts | 60° |
| 2026-04-20 15:21 | 54.73884 | 3.02802 | 25330 ft | 276 kts | 60° |
| 2026-04-20 15:21 | 54.75051 | 3.05442 | 25328 ft | 276 kts | 60° |
| 2026-04-20 15:21 | 54.76205 | 3.08052 | 25327 ft | 276 kts | 60° |
| 2026-04-20 15:22 | 54.77373 | 3.10696 | 25330 ft | 276 kts | 60° |
| 2026-04-20 15:22 | 54.78537 | 3.13333 | 25330 ft | 276 kts | 60° |
| 2026-04-20 15:22 | 54.79702 | 3.15974 | 25330 ft | 276 kts | 60° |
| 2026-04-20 15:22 | 54.80866 | 3.18617 | 25330 ft | 276 kts | 60° |
| 2026-04-20 15:23 | 54.82030 | 3.21262 | 25333 ft | 276 kts | 60° |
| 2026-04-20 15:23 | 54.83195 | 3.23910 | 25330 ft | 276 kts | 60° |
| 2026-04-20 15:23 | 54.84360 | 3.26561 | 25314 ft | 276 kts | 60° |
| 2026-04-20 15:23 | 54.85521 | 3.29207 | 25328 ft | 275 kts | 60° |
| 2026-04-20 15:24 | 54.86679 | 3.31849 | 25328 ft | 275 kts | 60° |
| 2026-04-20 15:24 | 54.87838 | 3.34499 | 25330 ft | 275 kts | 60° |
| 2026-04-20 15:24 | 54.88992 | 3.37136 | 25330 ft | 275 kts | 60° |
| 2026-04-20 15:24 | 54.90150 | 3.39787 | 25329 ft | 275 kts | 60° |
| 2026-04-20 15:25 | 54.91308 | 3.42439 | 25336 ft | 275 kts | 60° |
| 2026-04-20 15:25 | 54.92468 | 3.45099 | 25333 ft | 276 kts | 60° |
| 2026-04-20 15:25 | 54.93626 | 3.47758 | 25332 ft | 276 kts | 60° |
| 2026-04-20 15:25 | 54.94768 | 3.50381 | 25335 ft | 276 kts | 60° |
| 2026-04-20 15:26 | 54.95925 | 3.53044 | 25314 ft | 276 kts | 60° |
| 2026-04-20 15:26 | 54.97078 | 3.55700 | 25333 ft | 275 kts | 60° |
| 2026-04-20 15:26 | 54.98230 | 3.58355 | 25339 ft | 275 kts | 60° |
| 2026-04-20 15:26 | 54.99385 | 3.61022 | 25335 ft | 276 kts | 60° |
| 2026-04-20 15:27 | 55.00538 | 3.63685 | 25346 ft | 276 kts | 60° |
| 2026-04-20 15:27 | 55.01697 | 3.66368 | 25339 ft | 277 kts | 60° |
| 2026-04-20 15:27 | 55.02858 | 3.69054 | 25337 ft | 278 kts | 60° |
| 2026-04-20 15:27 | 55.04020 | 3.71745 | 25336 ft | 278 kts | 60° |
| 2026-04-20 15:28 | 55.05183 | 3.74443 | 25334 ft | 278 kts | 60° |
| 2026-04-20 15:28 | 55.06330 | 3.77108 | 25338 ft | 278 kts | 60° |
| 2026-04-20 15:28 | 55.07491 | 3.79806 | 25337 ft | 278 kts | 60° |
| 2026-04-20 15:28 | 55.08651 | 3.82507 | 25337 ft | 278 kts | 60° |
| 2026-04-20 15:29 | 55.09810 | 3.85211 | 25331 ft | 278 kts | 59° |
| 2026-04-20 15:29 | 55.10965 | 3.87906 | 25341 ft | 277 kts | 59° |
| 2026-04-20 15:29 | 55.12119 | 3.90605 | 25340 ft | 277 kts | 58° |
| 2026-04-20 15:29 | 55.13524 | 3.92977 | 25343 ft | 286 kts | 43° |
| 2026-04-20 15:30 | 55.15216 | 3.94864 | 25342 ft | 290 kts | 36° |
| 2026-04-20 15:30 | 55.17009 | 3.96522 | 25344 ft | 292 kts | 33° |
| 2026-04-20 15:30 | 55.18850 | 3.98053 | 25344 ft | 293 kts | 31° |
| 2026-04-20 15:30 | 55.20714 | 3.99512 | 25335 ft | 294 kts | 30° |
| 2026-04-20 15:31 | 55.22595 | 4.00933 | 25352 ft | 294 kts | 29° |
| 2026-04-20 15:31 | 55.24479 | 4.02333 | 25350 ft | 294 kts | 29° |
| 2026-04-20 15:31 | 55.26365 | 4.03721 | 25349 ft | 294 kts | 28° |
| 2026-04-20 15:31 | 55.28250 | 4.05103 | 25349 ft | 294 kts | 28° |
| 2026-04-20 15:32 | 55.30139 | 4.06485 | 25352 ft | 294 kts | 28° |
| 2026-04-20 15:32 | 55.32029 | 4.07868 | 25354 ft | 294 kts | 28° |
| 2026-04-20 15:32 | 55.33918 | 4.09250 | 25354 ft | 294 kts | 28° |
| 2026-04-20 15:32 | 55.35810 | 4.10635 | 25354 ft | 294 kts | 28° |
| 2026-04-20 15:33 | 55.37675 | 4.12001 | 25356 ft | 294 kts | 28° |
| 2026-04-20 15:33 | 55.39564 | 4.13387 | 25354 ft | 294 kts | 28° |
| 2026-04-20 15:33 | 55.41454 | 4.14774 | 25354 ft | 294 kts | 28° |
| 2026-04-20 15:33 | 55.43332 | 4.16156 | 25354 ft | 294 kts | 28° |
| 2026-04-20 15:34 | 55.45223 | 4.17547 | 25353 ft | 294 kts | 28° |
| 2026-04-20 15:34 | 55.47106 | 4.18934 | 25350 ft | 293 kts | 28° |
| 2026-04-20 15:34 | 55.48991 | 4.20323 | 25354 ft | 293 kts | 28° |
| 2026-04-20 15:34 | 55.50871 | 4.21712 | 25358 ft | 293 kts | 28° |
| 2026-04-20 15:35 | 55.52752 | 4.23102 | 25361 ft | 293 kts | 28° |
| 2026-04-20 15:35 | 55.54623 | 4.24486 | 25355 ft | 293 kts | 28° |
| 2026-04-20 15:35 | 55.56504 | 4.25880 | 25355 ft | 293 kts | 28° |
| 2026-04-20 15:35 | 55.58383 | 4.27273 | 25358 ft | 293 kts | 28° |
| 2026-04-20 15:36 | 55.60262 | 4.28667 | 25352 ft | 293 kts | 28° |
| 2026-04-20 15:36 | 55.62145 | 4.30066 | 25364 ft | 293 kts | 28° |
| 2026-04-20 15:36 | 55.64023 | 4.31464 | 25363 ft | 293 kts | 28° |
| 2026-04-20 15:36 | 55.65902 | 4.32863 | 25363 ft | 293 kts | 28° |
| 2026-04-20 15:37 | 55.67782 | 4.34265 | 25370 ft | 293 kts | 28° |
| 2026-04-20 15:37 | 55.69660 | 4.35666 | 25366 ft | 293 kts | 28° |
| 2026-04-20 15:37 | 55.71536 | 4.37068 | 25352 ft | 293 kts | 28° |
| 2026-04-20 15:37 | 55.73413 | 4.38471 | 25368 ft | 292 kts | 28° |
| 2026-04-20 15:38 | 55.75282 | 4.39871 | 25372 ft | 292 kts | 28° |
| 2026-04-20 15:38 | 55.77132 | 4.41258 | 25367 ft | 292 kts | 28° |
| 2026-04-20 15:38 | 55.79008 | 4.42666 | 25369 ft | 292 kts | 29° |
| 2026-04-20 15:38 | 55.80873 | 4.44067 | 25369 ft | 292 kts | 29° |
| 2026-04-20 15:39 | 55.82749 | 4.45477 | 25375 ft | 292 kts | 29° |
| 2026-04-20 15:39 | 55.84622 | 4.46887 | 25374 ft | 292 kts | 29° |
| 2026-04-20 15:39 | 55.86491 | 4.48295 | 25370 ft | 292 kts | 29° |
| 2026-04-20 15:39 | 55.88364 | 4.49709 | 25375 ft | 292 kts | 29° |
| 2026-04-20 15:40 | 55.90236 | 4.51123 | 25368 ft | 292 kts | 29° |
| 2026-04-20 15:40 | 55.92107 | 4.52537 | 25367 ft | 292 kts | 28° |
| 2026-04-20 15:40 | 55.93976 | 4.53951 | 25375 ft | 291 kts | 28° |
| 2026-04-20 15:40 | 55.95841 | 4.55365 | 25376 ft | 291 kts | 28° |
| 2026-04-20 15:41 | 55.97705 | 4.56778 | 25374 ft | 291 kts | 28° |
| 2026-04-20 15:41 | 55.99567 | 4.58192 | 25376 ft | 290 kts | 28° |
| 2026-04-20 15:41 | 56.01430 | 4.59608 | 25375 ft | 290 kts | 28° |
| 2026-04-20 15:41 | 56.03287 | 4.61021 | 25376 ft | 290 kts | 28° |
| 2026-04-20 15:42 | 56.05147 | 4.62438 | 25381 ft | 290 kts | 28° |
| 2026-04-20 15:42 | 56.06999 | 4.63851 | 25379 ft | 290 kts | 28° |
| 2026-04-20 15:42 | 56.08855 | 4.65268 | 25379 ft | 290 kts | 28° |
| 2026-04-20 15:42 | 56.10708 | 4.66683 | 25377 ft | 289 kts | 28° |
| 2026-04-20 15:43 | 56.12562 | 4.68101 | 25375 ft | 289 kts | 28° |
| 2026-04-20 15:43 | 56.14382 | 4.69495 | 25381 ft | 289 kts | 28° |
| 2026-04-20 15:43 | 56.16235 | 4.70916 | 25378 ft | 289 kts | 28° |
| 2026-04-20 15:43 | 56.18082 | 4.72333 | 25379 ft | 289 kts | 28° |
| 2026-04-20 15:44 | 56.19929 | 4.73753 | 25379 ft | 289 kts | 28° |
| 2026-04-20 15:44 | 56.21780 | 4.75176 | 25370 ft | 289 kts | 28° |
| 2026-04-20 15:44 | 56.23624 | 4.76596 | 25378 ft | 288 kts | 28° |
| 2026-04-20 15:44 | 56.25470 | 4.78018 | 25385 ft | 288 kts | 28° |
| 2026-04-20 15:45 | 56.27311 | 4.79439 | 25384 ft | 288 kts | 28° |
| 2026-04-20 15:45 | 56.29152 | 4.80861 | 25383 ft | 288 kts | 28° |
| 2026-04-20 15:45 | 56.30994 | 4.82285 | 25380 ft | 288 kts | 28° |
| 2026-04-20 15:45 | 56.32836 | 4.83710 | 25386 ft | 288 kts | 28° |
| 2026-04-20 15:46 | 56.34674 | 4.85135 | 25389 ft | 288 kts | 28° |
| 2026-04-20 15:46 | 56.36514 | 4.86562 | 25386 ft | 288 kts | 28° |
| 2026-04-20 15:46 | 56.38356 | 4.87992 | 25386 ft | 288 kts | 28° |
| 2026-04-20 15:46 | 56.40195 | 4.89421 | 25386 ft | 288 kts | 28° |
| 2026-04-20 15:47 | 56.42033 | 4.90852 | 25386 ft | 288 kts | 28° |
| 2026-04-20 15:47 | 56.43875 | 4.92287 | 25390 ft | 288 kts | 28° |
| 2026-04-20 15:47 | 56.45717 | 4.93723 | 25390 ft | 288 kts | 28° |
| 2026-04-20 15:47 | 56.47551 | 4.95154 | 25388 ft | 288 kts | 28° |
| 2026-04-20 15:48 | 56.49365 | 4.96572 | 25397 ft | 287 kts | 28° |
| 2026-04-20 15:48 | 56.51198 | 4.98006 | 25399 ft | 287 kts | 28° |
| 2026-04-20 15:48 | 56.53029 | 4.99463 | 25389 ft | 286 kts | 31° |
| 2026-04-20 15:48 | 56.54769 | 5.01172 | 25398 ft | 284 kts | 34° |
| 2026-04-20 15:49 | 56.56477 | 5.02985 | 25398 ft | 284 kts | 35° |
| 2026-04-20 15:49 | 56.58175 | 5.04807 | 25394 ft | 284 kts | 35° |
| 2026-04-20 15:49 | 56.59875 | 5.06639 | 25400 ft | 284 kts | 35° |
| 2026-04-20 15:49 | 56.61572 | 5.08477 | 25393 ft | 284 kts | 35° |
| 2026-04-20 15:50 | 56.63267 | 5.10316 | 25402 ft | 284 kts | 36° |
| 2026-04-20 15:50 | 56.64964 | 5.12161 | 25395 ft | 284 kts | 36° |
| 2026-04-20 15:50 | 56.66645 | 5.13992 | 25400 ft | 284 kts | 36° |
| 2026-04-20 15:50 | 56.68342 | 5.15843 | 25400 ft | 284 kts | 36° |
| 2026-04-20 15:51 | 56.70030 | 5.17686 | 25393 ft | 283 kts | 36° |
| 2026-04-20 15:51 | 56.71723 | 5.19537 | 25398 ft | 283 kts | 36° |
| 2026-04-20 15:51 | 56.73412 | 5.21385 | 25393 ft | 283 kts | 36° |
| 2026-04-20 15:51 | 56.75100 | 5.23234 | 25403 ft | 283 kts | 35° |
| 2026-04-20 15:52 | 56.76789 | 5.25085 | 25401 ft | 283 kts | 35° |
| 2026-04-20 15:52 | 56.78466 | 5.26926 | 25405 ft | 283 kts | 35° |
| 2026-04-20 15:52 | 56.80147 | 5.28774 | 25407 ft | 283 kts | 35° |
| 2026-04-20 15:53 | 56.83518 | 5.32484 | 25404 ft | 283 kts | 36° |
| 2026-04-20 15:53 | 56.85201 | 5.34339 | 25406 ft | 283 kts | 36° |
| 2026-04-20 15:53 | 56.86887 | 5.36200 | 25410 ft | 283 kts | 36° |
| 2026-04-20 15:53 | 56.88569 | 5.38059 | 25406 ft | 283 kts | 36° |
| 2026-04-20 15:54 | 56.90256 | 5.39924 | 25410 ft | 283 kts | 36° |
| 2026-04-20 15:54 | 56.91918 | 5.41764 | 25409 ft | 283 kts | 36° |
| 2026-04-20 15:54 | 56.93612 | 5.43642 | 25407 ft | 283 kts | 36° |
| 2026-04-20 15:54 | 56.95274 | 5.45486 | 25412 ft | 283 kts | 36° |
| 2026-04-20 15:55 | 56.96956 | 5.47354 | 25419 ft | 283 kts | 36° |
| 2026-04-20 15:55 | 56.98662 | 5.49177 | 25410 ft | 285 kts | 31° |
| 2026-04-20 15:55 | 57.00492 | 5.50596 | 25406 ft | 286 kts | 25° |
| 2026-04-20 15:55 | 57.02374 | 5.51804 | 25418 ft | 287 kts | 23° |
| 2026-04-20 15:56 | 57.04272 | 5.52926 | 25422 ft | 287 kts | 22° |
| 2026-04-20 15:56 | 57.06187 | 5.54004 | 25422 ft | 287 kts | 21° |
| 2026-04-20 15:56 | 57.08108 | 5.55056 | 25422 ft | 287 kts | 21° |
| 2026-04-20 15:56 | 57.10026 | 5.56091 | 25421 ft | 287 kts | 21° |
| 2026-04-20 15:57 | 57.11947 | 5.57120 | 25421 ft | 287 kts | 21° |
| 2026-04-20 15:57 | 57.13871 | 5.58147 | 25422 ft | 287 kts | 21° |
| 2026-04-20 15:57 | 57.15790 | 5.59169 | 25427 ft | 287 kts | 21° |
| 2026-04-20 15:57 | 57.17716 | 5.60194 | 25427 ft | 287 kts | 21° |
| 2026-04-20 15:58 | 57.19613 | 5.61205 | 25428 ft | 287 kts | 21° |
| 2026-04-20 15:58 | 57.21536 | 5.62230 | 25427 ft | 287 kts | 21° |
| 2026-04-20 15:58 | 57.23460 | 5.63257 | 25427 ft | 287 kts | 20° |
| 2026-04-20 15:58 | 57.25386 | 5.64285 | 25427 ft | 287 kts | 21° |
| 2026-04-20 15:59 | 57.27296 | 5.65306 | 25427 ft | 287 kts | 21° |
| 2026-04-20 15:59 | 57.29215 | 5.66333 | 25434 ft | 286 kts | 20° |
| 2026-04-20 15:59 | 57.31130 | 5.67359 | 25433 ft | 286 kts | 21° |
| 2026-04-20 15:59 | 57.33043 | 5.68386 | 25434 ft | 286 kts | 21° |
| 2026-04-20 16:00 | 57.34958 | 5.69414 | 25429 ft | 286 kts | 20° |
| 2026-04-20 16:00 | 57.36869 | 5.70442 | 25442 ft | 286 kts | 21° |
| 2026-04-20 16:00 | 57.38785 | 5.71473 | 25440 ft | 286 kts | 21° |
| 2026-04-20 16:00 | 57.40693 | 5.72502 | 25441 ft | 286 kts | 21° |
| 2026-04-20 16:01 | 57.42607 | 5.73535 | 25441 ft | 286 kts | 21° |
| 2026-04-20 16:01 | 57.44517 | 5.74566 | 25438 ft | 286 kts | 21° |
| 2026-04-20 16:01 | 57.46430 | 5.75601 | 25439 ft | 286 kts | 21° |
| 2026-04-20 16:01 | 57.48340 | 5.76634 | 25444 ft | 286 kts | 21° |
| 2026-04-20 16:02 | 57.50257 | 5.77674 | 25447 ft | 286 kts | 21° |
| 2026-04-20 16:02 | 57.52166 | 5.78710 | 25427 ft | 286 kts | 21° |
| 2026-04-20 16:02 | 57.54054 | 5.79735 | 25440 ft | 286 kts | 21° |
| 2026-04-20 16:02 | 57.55958 | 5.80770 | 25449 ft | 285 kts | 21° |
| 2026-04-20 16:03 | 57.57862 | 5.81808 | 25447 ft | 285 kts | 21° |
| 2026-04-20 16:03 | 57.59768 | 5.82847 | 25451 ft | 285 kts | 20° |
| 2026-04-20 16:03 | 57.61673 | 5.83886 | 25452 ft | 285 kts | 21° |
| 2026-04-20 16:03 | 57.63585 | 5.84931 | 25449 ft | 285 kts | 21° |
| 2026-04-20 16:04 | 57.65493 | 5.85974 | 25454 ft | 285 kts | 21° |
| 2026-04-20 16:04 | 57.67401 | 5.87019 | 25454 ft | 285 kts | 21° |
| 2026-04-20 16:04 | 57.69307 | 5.88064 | 25454 ft | 285 kts | 21° |
| 2026-04-20 16:04 | 57.70569 | 5.88757 | 25457 ft | 285 kts | 21° |
| 2026-04-20 16:05 | 57.72475 | 5.89803 | 25456 ft | 285 kts | 21° |
| 2026-04-20 16:05 | 57.74376 | 5.90848 | 25449 ft | 285 kts | 21° |
| 2026-04-20 16:05 | 57.76280 | 5.91897 | 25454 ft | 285 kts | 21° |
| 2026-04-20 16:05 | 57.78188 | 5.92948 | 25453 ft | 285 kts | 21° |
| 2026-04-20 16:06 | 57.80093 | 5.94000 | 25456 ft | 285 kts | 20° |
| 2026-04-20 16:06 | 57.81986 | 5.95045 | 25466 ft | 285 kts | 20° |
| 2026-04-20 16:06 | 57.83885 | 5.96095 | 25467 ft | 285 kts | 20° |
| 2026-04-20 16:06 | 57.85789 | 5.97149 | 25456 ft | 285 kts | 20° |
| 2026-04-20 16:07 | 57.87689 | 5.98202 | 25460 ft | 285 kts | 20° |
| 2026-04-20 16:07 | 57.89595 | 5.99259 | 25468 ft | 285 kts | 20° |
| 2026-04-20 16:07 | 57.91499 | 6.00317 | 25461 ft | 285 kts | 20° |
| 2026-04-20 16:07 | 57.93401 | 6.01375 | 25464 ft | 285 kts | 20° |
| 2026-04-20 16:08 | 57.95304 | 6.02434 | 25466 ft | 285 kts | 20° |
| 2026-04-20 16:08 | 57.97205 | 6.03494 | 25456 ft | 285 kts | 20° |
| 2026-04-20 16:08 | 57.99114 | 6.04559 | 25466 ft | 285 kts | 20° |
| 2026-04-20 16:08 | 58.01015 | 6.05621 | 25469 ft | 285 kts | 20° |
| 2026-04-20 16:09 | 58.02915 | 6.06683 | 25458 ft | 285 kts | 20° |
| 2026-04-20 16:09 | 58.04815 | 6.07747 | 25464 ft | 285 kts | 20° |
| 2026-04-20 16:09 | 58.06721 | 6.08816 | 25459 ft | 285 kts | 20° |
| 2026-04-20 16:09 | 58.08614 | 6.09877 | 25469 ft | 285 kts | 20° |
| 2026-04-20 16:10 | 58.10515 | 6.10945 | 25459 ft | 285 kts | 20° |
| 2026-04-20 16:10 | 58.12415 | 6.12014 | 25467 ft | 285 kts | 20° |
| 2026-04-20 16:10 | 58.14314 | 6.13083 | 25472 ft | 285 kts | 20° |
| 2026-04-20 16:10 | 58.16211 | 6.14152 | 25475 ft | 285 kts | 20° |
| 2026-04-20 16:11 | 58.18110 | 6.15224 | 25463 ft | 285 kts | 20° |
| 2026-04-20 16:11 | 58.20010 | 6.16297 | 25466 ft | 285 kts | 20° |
| 2026-04-20 16:11 | 58.21910 | 6.17371 | 25463 ft | 285 kts | 20° |
| 2026-04-20 16:11 | 58.23811 | 6.18448 | 25454 ft | 284 kts | 20° |
| 2026-04-20 16:12 | 58.25704 | 6.19521 | 25464 ft | 284 kts | 20° |
| 2026-04-20 16:12 | 58.27573 | 6.20581 | 25459 ft | 284 kts | 20° |
| 2026-04-20 16:12 | 58.29463 | 6.21655 | 25453 ft | 283 kts | 20° |
| 2026-04-20 16:12 | 58.31350 | 6.22728 | 25462 ft | 283 kts | 20° |
| 2026-04-20 16:13 | 58.33237 | 6.23803 | 25448 ft | 283 kts | 19° |
| 2026-04-20 16:13 | 58.35118 | 6.24878 | 25459 ft | 282 kts | 20° |
| 2026-04-20 16:13 | 58.36992 | 6.25984 | 25455 ft | 282 kts | 20° |
| 2026-04-20 16:13 | 58.38864 | 6.27096 | 25457 ft | 282 kts | 20° |
| 2026-04-20 16:14 | 58.40740 | 6.28211 | 25459 ft | 282 kts | 20° |
| 2026-04-20 16:14 | 58.42617 | 6.29325 | 25456 ft | 282 kts | 20° |
| 2026-04-20 16:14 | 58.44483 | 6.30434 | 25462 ft | 281 kts | 20° |
| 2026-04-20 16:14 | 58.46359 | 6.31550 | 25462 ft | 281 kts | 20° |
| 2026-04-20 16:15 | 58.48230 | 6.32664 | 25462 ft | 282 kts | 20° |
| 2026-04-20 16:15 | 58.50100 | 6.33779 | 25462 ft | 282 kts | 20° |
| 2026-04-20 16:15 | 58.51974 | 6.34896 | 25465 ft | 282 kts | 20° |
| 2026-04-20 16:15 | 58.53844 | 6.36013 | 25460 ft | 282 kts | 20° |
| 2026-04-20 16:16 | 58.55719 | 6.37135 | 25457 ft | 282 kts | 20° |
| 2026-04-20 16:16 | 58.57591 | 6.38255 | 25461 ft | 282 kts | 20° |
| 2026-04-20 16:16 | 58.59451 | 6.39370 | 25459 ft | 281 kts | 20° |
| 2026-04-20 16:16 | 58.61298 | 6.40478 | 25459 ft | 281 kts | 20° |
| 2026-04-20 16:17 | 58.63184 | 6.41611 | 25458 ft | 281 kts | 20° |
| 2026-04-20 16:17 | 58.65054 | 6.42735 | 25460 ft | 281 kts | 20° |
| 2026-04-20 16:17 | 58.66922 | 6.43860 | 25464 ft | 281 kts | 20° |
| 2026-04-20 16:17 | 58.68788 | 6.44984 | 25466 ft | 281 kts | 20° |
| 2026-04-20 16:18 | 58.70656 | 6.46111 | 25469 ft | 281 kts | 20° |
| 2026-04-20 16:18 | 58.72498 | 6.47224 | 25466 ft | 282 kts | 20° |
| 2026-04-20 16:18 | 58.74391 | 6.48369 | 25465 ft | 282 kts | 20° |
| 2026-04-20 16:18 | 58.76239 | 6.49487 | 25466 ft | 282 kts | 20° |
| 2026-04-20 16:19 | 58.78110 | 6.50621 | 25461 ft | 282 kts | 20° |
| 2026-04-20 16:19 | 58.79980 | 6.51756 | 25469 ft | 281 kts | 20° |
| 2026-04-20 16:19 | 58.81845 | 6.52889 | 25468 ft | 282 kts | 20° |
| 2026-04-20 16:19 | 58.83716 | 6.54027 | 25467 ft | 282 kts | 20° |
| 2026-04-20 16:20 | 58.85583 | 6.55163 | 25468 ft | 282 kts | 20° |
| 2026-04-20 16:20 | 58.87453 | 6.56303 | 25460 ft | 281 kts | 20° |
| 2026-04-20 16:20 | 58.89316 | 6.57440 | 25467 ft | 281 kts | 20° |
| 2026-04-20 16:20 | 58.91174 | 6.58575 | 25467 ft | 281 kts | 20° |
| 2026-04-20 16:21 | 58.93046 | 6.59720 | 25471 ft | 281 kts | 20° |
| 2026-04-20 16:21 | 58.94911 | 6.60862 | 25470 ft | 281 kts | 20° |
| 2026-04-20 16:21 | 58.96781 | 6.62008 | 25479 ft | 281 kts | 20° |
| 2026-04-20 16:21 | 58.98646 | 6.63153 | 25486 ft | 281 kts | 20° |
| 2026-04-20 16:22 | 59.00510 | 6.64298 | 25486 ft | 281 kts | 20° |
| 2026-04-20 16:22 | 59.02345 | 6.65427 | 25483 ft | 281 kts | 20° |
| 2026-04-20 16:22 | 59.04219 | 6.66580 | 25483 ft | 281 kts | 20° |
| 2026-04-20 16:22 | 59.06082 | 6.67729 | 25486 ft | 281 kts | 20° |
| 2026-04-20 16:23 | 59.07950 | 6.68882 | 25480 ft | 281 kts | 20° |
| 2026-04-20 16:23 | 59.09813 | 6.70033 | 25493 ft | 280 kts | 20° |
| 2026-04-20 16:23 | 59.11674 | 6.71184 | 25494 ft | 280 kts | 20° |
| 2026-04-20 16:23 | 59.13537 | 6.72338 | 25492 ft | 280 kts | 20° |
| 2026-04-20 16:24 | 59.15381 | 6.73482 | 25483 ft | 280 kts | 20° |
| 2026-04-20 16:24 | 59.17256 | 6.74645 | 25490 ft | 281 kts | 20° |
| 2026-04-20 16:24 | 59.19110 | 6.75798 | 25489 ft | 281 kts | 20° |
| 2026-04-20 16:24 | 59.20976 | 6.76959 | 25494 ft | 281 kts | 19° |
| 2026-04-20 16:25 | 59.22839 | 6.78119 | 25497 ft | 281 kts | 20° |
| 2026-04-20 16:25 | 59.24709 | 6.79285 | 25498 ft | 281 kts | 20° |
| 2026-04-20 16:25 | 59.26574 | 6.80449 | 25499 ft | 282 kts | 20° |
| 2026-04-20 16:25 | 59.28419 | 6.81602 | 25497 ft | 282 kts | 20° |
| 2026-04-20 16:26 | 59.30291 | 6.82774 | 25500 ft | 282 kts | 20° |
| 2026-04-20 16:26 | 59.32160 | 6.83945 | 25505 ft | 282 kts | 20° |
| 2026-04-20 16:26 | 59.34033 | 6.85089 | 25504 ft | 282 kts | 19° |
| 2026-04-20 16:26 | 59.35920 | 6.86149 | 25510 ft | 282 kts | 18° |
| 2026-04-20 16:27 | 59.37813 | 6.87210 | 25507 ft | 283 kts | 18° |
| 2026-04-20 16:27 | 59.39704 | 6.88278 | 25508 ft | 283 kts | 18° |
| 2026-04-20 16:27 | 59.41598 | 6.89350 | 25503 ft | 283 kts | 18° |
| 2026-04-20 16:27 | 59.43491 | 6.90426 | 25504 ft | 283 kts | 18° |
| 2026-04-20 16:28 | 59.45383 | 6.91503 | 25506 ft | 283 kts | 18° |
| 2026-04-20 16:28 | 59.47278 | 6.92584 | 25509 ft | 284 kts | 18° |
| 2026-04-20 16:28 | 59.49175 | 6.93668 | 25505 ft | 284 kts | 18° |
| 2026-04-20 16:28 | 59.51080 | 6.94757 | 25510 ft | 285 kts | 18° |
| 2026-04-20 16:29 | 59.52987 | 6.95849 | 25508 ft | 285 kts | 18° |
| 2026-04-20 16:29 | 59.54892 | 6.96941 | 25512 ft | 285 kts | 18° |
| 2026-04-20 16:29 | 59.56800 | 6.98036 | 25516 ft | 286 kts | 18° |
| 2026-04-20 16:29 | 59.58689 | 6.99122 | 25515 ft | 286 kts | 18° |
| 2026-04-20 16:30 | 59.60599 | 7.00221 | 25515 ft | 286 kts | 18° |
| 2026-04-20 16:30 | 59.62510 | 7.01322 | 25517 ft | 286 kts | 18° |
| 2026-04-20 16:30 | 59.64425 | 7.02426 | 25523 ft | 286 kts | 18° |
| 2026-04-20 16:30 | 59.66334 | 7.03528 | 25525 ft | 286 kts | 18° |
| 2026-04-20 16:31 | 59.68246 | 7.04634 | 25526 ft | 286 kts | 18° |
| 2026-04-20 16:31 | 59.70158 | 7.05740 | 25517 ft | 287 kts | 18° |
| 2026-04-20 16:31 | 59.72082 | 7.06855 | 25517 ft | 287 kts | 18° |
| 2026-04-20 16:31 | 59.73989 | 7.07961 | 25523 ft | 287 kts | 17° |
| 2026-04-20 16:32 | 59.75905 | 7.09074 | 25526 ft | 288 kts | 17° |
| 2026-04-20 16:32 | 59.77829 | 7.10194 | 25542 ft | 287 kts | 18° |
| 2026-04-20 16:32 | 59.79750 | 7.11312 | 25542 ft | 288 kts | 17° |
| 2026-04-20 16:32 | 59.81676 | 7.12435 | 25540 ft | 288 kts | 17° |
| 2026-04-20 16:33 | 59.83598 | 7.13557 | 25543 ft | 288 kts | 17° |
| 2026-04-20 16:33 | 59.85521 | 7.14681 | 25535 ft | 288 kts | 17° |
| 2026-04-20 16:33 | 59.87449 | 7.15809 | 25547 ft | 289 kts | 17° |
| 2026-04-20 16:33 | 59.89350 | 7.16922 | 25548 ft | 289 kts | 17° |
| 2026-04-20 16:34 | 59.91283 | 7.18056 | 25549 ft | 289 kts | 18° |
| 2026-04-20 16:34 | 59.93211 | 7.19188 | 25547 ft | 289 kts | 17° |
| 2026-04-20 16:34 | 59.95137 | 7.20320 | 25549 ft | 289 kts | 18° |
| 2026-04-20 16:34 | 59.97067 | 7.21456 | 25546 ft | 289 kts | 18° |
| 2026-04-20 16:35 | 59.99002 | 7.22597 | 25543 ft | 289 kts | 17° |
| 2026-04-20 16:35 | 60.00922 | 7.23729 | 25550 ft | 289 kts | 17° |
| 2026-04-20 16:35 | 60.02860 | 7.24874 | 25549 ft | 289 kts | 17° |
| 2026-04-20 16:35 | 60.04792 | 7.26017 | 25548 ft | 290 kts | 17° |
| 2026-04-20 16:36 | 60.06724 | 7.27162 | 25548 ft | 290 kts | 17° |
| 2026-04-20 16:36 | 60.08656 | 7.28307 | 25548 ft | 290 kts | 17° |
| 2026-04-20 16:36 | 60.10593 | 7.29457 | 25548 ft | 290 kts | 17° |
| 2026-04-20 16:37 | 60.14386 | 7.31713 | 25551 ft | 290 kts | 17° |
| 2026-04-20 16:37 | 60.16183 | 7.32784 | 25551 ft | 290 kts | 17° |
| 2026-04-20 16:37 | 60.18101 | 7.33928 | 25551 ft | 290 kts | 17° |
| 2026-04-20 16:37 | 60.20034 | 7.35082 | 25543 ft | 290 kts | 17° |
| 2026-04-20 16:38 | 60.21976 | 7.36243 | 25544 ft | 290 kts | 17° |
| 2026-04-20 16:38 | 60.23910 | 7.37401 | 25545 ft | 290 kts | 17° |
| 2026-04-20 16:38 | 60.25845 | 7.38561 | 25536 ft | 290 kts | 17° |
| 2026-04-20 16:38 | 60.27775 | 7.39719 | 25541 ft | 290 kts | 18° |
| 2026-04-20 16:39 | 60.29711 | 7.40883 | 25546 ft | 289 kts | 17° |
| 2026-04-20 16:39 | 60.31421 | 7.41912 | 25543 ft | 289 kts | 17° |
| 2026-04-20 16:39 | 60.33113 | 7.42931 | 25543 ft | 289 kts | 18° |
| 2026-04-20 16:39 | 60.35037 | 7.44091 | 25545 ft | 289 kts | 17° |
| 2026-04-20 16:40 | 60.36964 | 7.45255 | 25540 ft | 289 kts | 17° |
| 2026-04-20 16:40 | 60.38867 | 7.46405 | 25532 ft | 289 kts | 18° |
| 2026-04-20 16:40 | 60.40790 | 7.47568 | 25538 ft | 288 kts | 17° |
| 2026-04-20 16:40 | 60.42715 | 7.48733 | 25540 ft | 287 kts | 17° |
| 2026-04-20 16:41 | 60.44630 | 7.49894 | 25540 ft | 287 kts | 17° |
| 2026-04-20 16:41 | 60.46540 | 7.51055 | 25541 ft | 287 kts | 18° |
| 2026-04-20 16:41 | 60.48451 | 7.52217 | 25539 ft | 286 kts | 17° |
| 2026-04-20 16:41 | 60.50358 | 7.53378 | 25540 ft | 286 kts | 17° |
| 2026-04-20 16:42 | 60.52261 | 7.54538 | 25540 ft | 286 kts | 18° |
| 2026-04-20 16:42 | 60.54162 | 7.55699 | 25526 ft | 286 kts | 17° |
| 2026-04-20 16:42 | 60.56064 | 7.56862 | 25528 ft | 286 kts | 17° |
| 2026-04-20 16:42 | 60.57969 | 7.58028 | 25532 ft | 286 kts | 17° |
| 2026-04-20 16:43 | 60.59875 | 7.59196 | 25536 ft | 286 kts | 17° |
| 2026-04-20 16:43 | 60.61779 | 7.60364 | 25536 ft | 286 kts | 17° |
| 2026-04-20 16:43 | 60.63684 | 7.61534 | 25534 ft | 286 kts | 17° |
| 2026-04-20 16:43 | 60.65593 | 7.62708 | 25536 ft | 286 kts | 17° |
| 2026-04-20 16:44 | 60.67497 | 7.63881 | 25541 ft | 286 kts | 17° |
| 2026-04-20 16:44 | 60.69401 | 7.65055 | 25540 ft | 286 kts | 17° |
| 2026-04-20 16:44 | 60.71308 | 7.66232 | 25540 ft | 286 kts | 17° |
| 2026-04-20 16:44 | 60.73220 | 7.67414 | 25540 ft | 287 kts | 17° |
| 2026-04-20 16:45 | 60.75126 | 7.68593 | 25537 ft | 287 kts | 17° |
| 2026-04-20 16:45 | 60.77015 | 7.69764 | 25533 ft | 287 kts | 17° |
| 2026-04-20 16:45 | 60.78925 | 7.70949 | 25532 ft | 287 kts | 17° |
| 2026-04-20 16:45 | 60.80836 | 7.72136 | 25532 ft | 287 kts | 17° |
| 2026-04-20 16:46 | 60.82736 | 7.73318 | 25527 ft | 287 kts | 17° |
| 2026-04-20 16:46 | 60.84649 | 7.74509 | 25531 ft | 287 kts | 17° |
| 2026-04-20 16:46 | 60.86561 | 7.75702 | 25532 ft | 287 kts | 17° |
| 2026-04-20 16:46 | 60.88451 | 7.77053 | 25527 ft | 288 kts | 20° |
| 2026-04-20 16:47 | 60.90320 | 7.78509 | 25527 ft | 288 kts | 21° |
| 2026-04-20 16:47 | 60.92196 | 7.79972 | 25527 ft | 288 kts | 20° |
| 2026-04-20 16:47 | 60.94065 | 7.81427 | 25526 ft | 288 kts | 20° |
| 2026-04-20 16:47 | 60.95945 | 7.82890 | 25527 ft | 288 kts | 20° |
| 2026-04-20 16:48 | 60.97828 | 7.84355 | 25527 ft | 288 kts | 20° |
| 2026-04-20 16:48 | 60.99702 | 7.85815 | 25521 ft | 288 kts | 20° |
| 2026-04-20 16:48 | 61.01582 | 7.87281 | 25524 ft | 289 kts | 20° |
| 2026-04-20 16:48 | 61.03458 | 7.88746 | 25522 ft | 289 kts | 20° |
| 2026-04-20 16:49 | 61.05345 | 7.90220 | 25522 ft | 289 kts | 20° |
| 2026-04-20 16:49 | 61.07225 | 7.91691 | 25520 ft | 289 kts | 20° |
| 2026-04-20 16:49 | 61.09104 | 7.93163 | 25524 ft | 289 kts | 21° |
| 2026-04-20 16:49 | 61.10962 | 7.94621 | 25515 ft | 290 kts | 20° |
| 2026-04-20 16:50 | 61.12848 | 7.96102 | 25517 ft | 290 kts | 20° |
| 2026-04-20 16:50 | 61.14734 | 7.97586 | 25519 ft | 290 kts | 20° |
| 2026-04-20 16:50 | 61.16621 | 7.99072 | 25519 ft | 290 kts | 20° |
| 2026-04-20 16:50 | 61.18510 | 8.00561 | 25519 ft | 290 kts | 20° |
| 2026-04-20 16:51 | 61.20401 | 8.02054 | 25518 ft | 291 kts | 20° |
| 2026-04-20 16:51 | 61.22291 | 8.03548 | 25521 ft | 291 kts | 20° |
| 2026-04-20 16:51 | 61.24180 | 8.05043 | 25519 ft | 291 kts | 20° |
| 2026-04-20 16:51 | 61.26078 | 8.06548 | 25518 ft | 291 kts | 20° |
| 2026-04-20 16:52 | 61.27972 | 8.08051 | 25521 ft | 291 kts | 20° |
| 2026-04-20 16:52 | 61.29866 | 8.09555 | 25519 ft | 292 kts | 20° |
| 2026-04-20 16:52 | 61.31760 | 8.11063 | 25518 ft | 292 kts | 20° |
| 2026-04-20 16:52 | 61.33658 | 8.12575 | 25522 ft | 292 kts | 20° |
| 2026-04-20 16:53 | 61.35557 | 8.14090 | 25530 ft | 292 kts | 20° |
| 2026-04-20 16:53 | 61.37453 | 8.15604 | 25528 ft | 292 kts | 20° |
| 2026-04-20 16:53 | 61.39323 | 8.17100 | 25533 ft | 292 kts | 20° |
| 2026-04-20 16:53 | 61.41222 | 8.18621 | 25530 ft | 293 kts | 20° |
| 2026-04-20 16:54 | 61.43123 | 8.20145 | 25526 ft | 293 kts | 20° |
| 2026-04-20 16:54 | 61.45014 | 8.21664 | 25531 ft | 293 kts | 20° |
| 2026-04-20 16:54 | 61.46919 | 8.23195 | 25531 ft | 293 kts | 20° |
| 2026-04-20 16:54 | 61.48819 | 8.24724 | 25530 ft | 293 kts | 21° |
| 2026-04-20 16:55 | 61.50723 | 8.26259 | 25531 ft | 293 kts | 21° |
| 2026-04-20 16:55 | 61.52624 | 8.27794 | 25528 ft | 293 kts | 21° |
| 2026-04-20 16:55 | 61.54526 | 8.29331 | 25531 ft | 293 kts | 21° |
| 2026-04-20 16:55 | 61.56426 | 8.30869 | 25531 ft | 293 kts | 21° |
| 2026-04-20 16:56 | 61.58330 | 8.32412 | 25530 ft | 293 kts | 21° |
| 2026-04-20 16:56 | 61.60232 | 8.33955 | 25531 ft | 293 kts | 21° |
| 2026-04-20 16:56 | 61.62135 | 8.35502 | 25530 ft | 293 kts | 21° |
| 2026-04-20 16:56 | 61.64015 | 8.37030 | 25528 ft | 293 kts | 21° |
| 2026-04-20 16:57 | 61.65942 | 8.38600 | 25529 ft | 293 kts | 21° |
| 2026-04-20 16:57 | 61.67843 | 8.40151 | 25515 ft | 293 kts | 21° |
| 2026-04-20 16:57 | 61.69741 | 8.41702 | 25523 ft | 293 kts | 21° |
| 2026-04-20 16:57 | 61.71611 | 8.43231 | 25525 ft | 293 kts | 21° |
| 2026-04-20 16:58 | 61.73511 | 8.44787 | 25527 ft | 293 kts | 21° |
| 2026-04-20 16:58 | 61.75416 | 8.46349 | 25524 ft | 294 kts | 21° |
| 2026-04-20 16:58 | 61.77322 | 8.47915 | 25523 ft | 294 kts | 21° |
| 2026-04-20 16:58 | 61.79231 | 8.49484 | 25526 ft | 294 kts | 21° |
| 2026-04-20 16:59 | 61.81137 | 8.51053 | 25524 ft | 294 kts | 21° |
| 2026-04-20 16:59 | 61.83046 | 8.52627 | 25525 ft | 294 kts | 21° |
| 2026-04-20 16:59 | 61.84953 | 8.54201 | 25523 ft | 295 kts | 21° |
| 2026-04-20 16:59 | 61.86867 | 8.55784 | 25527 ft | 295 kts | 21° |
| 2026-04-20 17:00 | 61.90694 | 8.58954 | 25528 ft | 295 kts | 21° |
| 2026-04-20 17:00 | 61.92602 | 8.60537 | 25530 ft | 295 kts | 21° |
| 2026-04-20 17:00 | 61.94517 | 8.62129 | 25530 ft | 295 kts | 21° |
| 2026-04-20 17:01 | 61.96434 | 8.63724 | 25525 ft | 296 kts | 21° |
| 2026-04-20 17:01 | 61.98343 | 8.65315 | 25520 ft | 296 kts | 22° |
| 2026-04-20 17:01 | 62.00254 | 8.66910 | 25525 ft | 296 kts | 22° |
| 2026-04-20 17:01 | 62.02167 | 8.68508 | 25527 ft | 295 kts | 22° |
| 2026-04-20 17:02 | 62.04082 | 8.70111 | 25526 ft | 295 kts | 22° |
| 2026-04-20 17:02 | 62.05996 | 8.71715 | 25526 ft | 295 kts | 22° |
| 2026-04-20 17:02 | 62.07909 | 8.73319 | 25504 ft | 296 kts | 22° |
| 2026-04-20 17:02 | 62.09877 | 8.74975 | 24885 ft | 316 kts | 22° |
| 2026-04-20 17:03 | 62.11962 | 8.76731 | 24501 ft | 329 kts | 22° |
| 2026-04-20 17:03 | 62.14134 | 8.78561 | 24171 ft | 342 kts | 22° |
| 2026-04-20 17:03 | 62.16382 | 8.80458 | 23783 ft | 352 kts | 22° |
| 2026-04-20 17:03 | 62.18694 | 8.82413 | 23387 ft | 361 kts | 22° |
| 2026-04-20 17:04 | 62.21050 | 8.84407 | 22977 ft | 367 kts | 22° |
| 2026-04-20 17:04 | 62.23447 | 8.86439 | 22605 ft | 373 kts | 22° |
| 2026-04-20 17:04 | 62.25051 | 8.87802 | 22356 ft | 376 kts | 22° |
| 2026-04-20 17:04 | 62.27495 | 8.89881 | 21961 ft | 380 kts | 22° |
| 2026-04-20 17:05 | 62.29967 | 8.91988 | 21585 ft | 383 kts | 22° |
| 2026-04-20 17:05 | 62.32445 | 8.94104 | 21221 ft | 385 kts | 22° |
| 2026-04-20 17:05 | 62.34940 | 8.96237 | 20848 ft | 387 kts | 22° |
| 2026-04-20 17:05 | 62.38262 | 8.99084 | 20359 ft | 388 kts | 22° |
| 2026-04-20 17:06 | 62.39958 | 9.00540 | 20122 ft | 389 kts | 22° |
| 2026-04-20 17:06 | 62.42469 | 9.02699 | 19765 ft | 389 kts | 22° |
| 2026-04-20 17:06 | 62.44987 | 9.04868 | 19420 ft | 389 kts | 22° |
| 2026-04-20 17:06 | 62.47507 | 9.07043 | 19061 ft | 389 kts | 22° |
| 2026-04-20 17:07 | 62.50024 | 9.09219 | 18696 ft | 389 kts | 22° |
| 2026-04-20 17:07 | 62.52499 | 9.11363 | 18307 ft | 389 kts | 22° |
| 2026-04-20 17:07 | 62.55010 | 9.13541 | 17913 ft | 389 kts | 22° |
| 2026-04-20 17:07 | 62.57515 | 9.15719 | 17530 ft | 388 kts | 22° |
| 2026-04-20 17:08 | 62.60020 | 9.17901 | 17143 ft | 388 kts | 22° |
| 2026-04-20 17:08 | 62.62524 | 9.20085 | 16764 ft | 387 kts | 22° |
| 2026-04-20 17:08 | 62.65021 | 9.22268 | 16385 ft | 387 kts | 22° |
| 2026-04-20 17:08 | 62.67515 | 9.24452 | 15960 ft | 387 kts | 22° |
| 2026-04-20 17:09 | 62.70034 | 9.26661 | 15214 ft | 390 kts | 22° |
| 2026-04-20 17:09 | 62.72529 | 9.28854 | 14588 ft | 378 kts | 22° |
| 2026-04-20 17:09 | 62.74895 | 9.30938 | 13925 ft | 355 kts | 22° |
| 2026-04-20 17:09 | 62.77118 | 9.32900 | 13239 ft | 337 kts | 22° |
| 2026-04-20 17:10 | 62.79244 | 9.34779 | 12575 ft | 322 kts | 21° |
| 2026-04-20 17:10 | 62.81278 | 9.36578 | 11933 ft | 310 kts | 21° |
| 2026-04-20 17:10 | 62.83226 | 9.38305 | 11607 ft | 292 kts | 21° |
| 2026-04-20 17:10 | 62.85028 | 9.39907 | 11519 ft | 268 kts | 20° |
| 2026-04-20 17:11 | 62.86697 | 9.41394 | 11490 ft | 256 kts | 20° |
| 2026-04-20 17:11 | 62.88347 | 9.42859 | 11490 ft | 256 kts | 20° |
| 2026-04-20 17:11 | 62.89996 | 9.44326 | 11500 ft | 256 kts | 20° |
| 2026-04-20 17:11 | 62.91654 | 9.45802 | 11497 ft | 257 kts | 20° |
| 2026-04-20 17:12 | 62.93315 | 9.47283 | 11305 ft | 263 kts | 21° |
| 2026-04-20 17:12 | 62.95128 | 9.48899 | 10450 ft | 292 kts | 20° |
| 2026-04-20 17:12 | 62.97052 | 9.50619 | 9854 ft | 302 kts | 20° |
| 2026-04-20 17:12 | 62.99020 | 9.52383 | 9292 ft | 308 kts | 21° |
| 2026-04-20 17:13 | 63.01012 | 9.54172 | 8742 ft | 312 kts | 21° |
| 2026-04-20 17:13 | 63.03037 | 9.55993 | 8199 ft | 315 kts | 21° |
| 2026-04-20 17:13 | 63.05060 | 9.57814 | 7704 ft | 315 kts | 21° |
| 2026-04-20 17:13 | 63.07053 | 9.59614 | 7568 ft | 304 kts | 21° |
| 2026-04-20 17:14 | 63.08996 | 9.61255 | 7515 ft | 293 kts | 17° |
| 2026-04-20 17:14 | 63.10914 | 9.62284 | 7497 ft | 283 kts | 10° |
| 2026-04-20 17:14 | 63.12847 | 9.62937 | 7485 ft | 281 kts | 5° |
| 2026-04-20 17:14 | 63.14813 | 9.63407 | 6922 ft | 298 kts | 3° |
| 2026-04-20 17:15 | 63.16941 | 9.63775 | 6333 ft | 311 kts | 2° |
| 2026-04-20 17:15 | 63.19102 | 9.64088 | 5949 ft | 312 kts | 2° |
| 2026-04-20 17:15 | 63.21278 | 9.64369 | 5504 ft | 313 kts | 1° |
| 2026-04-20 17:15 | 63.23457 | 9.64631 | 5049 ft | 314 kts | 1° |
| 2026-04-20 17:16 | 63.25632 | 9.64883 | 4655 ft | 309 kts | 1° |
| 2026-04-20 17:16 | 63.27756 | 9.65126 | 4265 ft | 302 kts | 1° |
| 2026-04-20 17:16 | 63.29788 | 9.65390 | 4318 ft | 282 kts | 1° |
| 2026-04-20 17:16 | 63.31688 | 9.65608 | 4371 ft | 266 kts | 0° |
| 2026-04-20 17:17 | 63.33466 | 9.65793 | 4390 ft | 253 kts | 1° |
| 2026-04-20 17:17 | 63.35213 | 9.65980 | 4394 ft | 245 kts | 0° |
| 2026-04-20 17:17 | 63.36872 | 9.66163 | 4375 ft | 238 kts | 1° |
| 2026-04-20 17:17 | 63.38497 | 9.66458 | 4383 ft | 231 kts | 3° |
| 2026-04-20 17:18 | 63.40085 | 9.66702 | 4391 ft | 228 kts | 360° |
| 2026-04-20 17:18 | 63.41685 | 9.66791 | 4417 ft | 233 kts | 359° |
| 2026-04-20 17:18 | 63.43302 | 9.67330 | 4397 ft | 240 kts | 20° |
| 2026-04-20 17:18 | 63.44765 | 9.69204 | 4399 ft | 245 kts | 33° |
| 2026-04-20 17:19 | 63.46128 | 9.71546 | 4397 ft | 249 kts | 37° |
| 2026-04-20 17:19 | 63.47473 | 9.73999 | 4395 ft | 249 kts | 34° |
| 2026-04-20 17:19 | 63.48918 | 9.76155 | 4404 ft | 249 kts | 30° |
| 2026-04-20 17:19 | 63.50346 | 9.78184 | 4394 ft | 238 kts | 30° |
| 2026-04-20 17:20 | 63.51714 | 9.80127 | 4394 ft | 227 kts | 28° |
| 2026-04-20 17:20 | 63.53151 | 9.80983 | 4387 ft | 211 kts | 351° |
| 2026-04-20 17:20 | 63.54403 | 9.79657 | 4402 ft | 197 kts | 310° |
| 2026-04-20 17:20 | 63.54975 | 9.76988 | 4385 ft | 188 kts | 294° |
| 2026-04-20 17:21 | 63.55943 | 9.75055 | 4139 ft | 195 kts | 332° |
| 2026-04-20 17:21 | 63.57223 | 9.73928 | 3997 ft | 196 kts | 338° |
| 2026-04-20 17:21 | 63.58507 | 9.72856 | 3799 ft | 198 kts | 336° |
| 2026-04-20 17:21 | 63.59755 | 9.71740 | 3435 ft | 190 kts | 335° |
| 2026-04-20 17:22 | 63.60951 | 9.70552 | 2945 ft | 187 kts | 332° |
| 2026-04-20 17:22 | 63.62111 | 9.69238 | 2434 ft | 186 kts | 331° |
| 2026-04-20 17:22 | 63.63269 | 9.67995 | 1946 ft | 184 kts | 330° |
| 2026-04-20 17:22 | 63.64386 | 9.66754 | 1513 ft | 178 kts | 329° |
| 2026-04-20 17:23 | 63.65432 | 9.65468 | 1128 ft | 162 kts | 329° |
| 2026-04-20 17:23 | 63.66360 | 9.64318 | 785 ft | 142 kts | 330° |
| 2026-04-20 17:23 | 63.67177 | 9.63363 | 414 ft | 125 kts | 333° |
| 2026-04-20 17:23 | 63.67966 | 9.62529 | 252 ft | 125 kts | 333° |
| 2026-04-20 17:24 | 63.68740 | 9.61671 | 96 ft | 121 kts | 333° |
| 2026-04-20 17:24 | 63.69477 | 9.60852 | 38 ft | 117 kts | 333° |
| 2026-04-20 17:24 | 63.70203 | 9.60058 | 27 ft | 101 kts | 336° |
| 2026-04-20 17:24 | 63.70497 | 9.59735 | 28 ft | 35 kts | 328° |
| 2026-04-20 17:25 | 63.70585 | 9.59615 | 28 ft | 12 kts | 334° |
| 2026-04-20 17:25 | 63.70652 | 9.59541 | 28 ft | 0 kts | 325° |
| 2026-04-20 17:25 | 63.70693 | 9.59499 | 27 ft | 13 kts | 338° |
| 2026-04-20 17:25 | 63.70792 | 9.59407 | 30 ft | 17 kts | 338° |
| 2026-04-20 17:26 | 63.70896 | 9.59303 | 28 ft | 16 kts | 334° |
| 2026-04-20 17:26 | 63.70954 | 9.59245 | 26 ft | 9 kts | 336° |
| 2026-04-20 17:26 | 63.71035 | 9.59161 | 27 ft | 15 kts | 336° |
| 2026-04-20 17:26 | 63.71084 | 9.59138 | 27 ft | 4 kts | 17° |
| 2026-04-20 17:27 | 63.71114 | 9.59264 | 27 ft | 15 kts | 93° |
| 2026-04-20 17:27 | 63.71083 | 9.59403 | 27 ft | 14 kts | 126° |
| 2026-04-20 17:27 | 63.70992 | 9.59654 | 26 ft | 25 kts | 140° |
| 2026-04-20 17:27 | 63.70822 | 9.59867 | 29 ft | 30 kts | 153° |
| 2026-04-20 17:28 | 63.70667 | 9.60038 | 26 ft | 28 kts | 152° |
| 2026-04-20 17:28 | 63.70482 | 9.60243 | 27 ft | 23 kts | 153° |
| 2026-04-20 17:28 | 63.70377 | 9.60338 | 27 ft | 13 kts | 147° |
| 2026-04-20 17:28 | 63.70307 | 9.60558 | 27 ft | 13 kts | 115° |
| 2026-04-20 17:29 | 63.70261 | 9.60716 | 32 ft | 12 kts | 120° |
| 2026-04-20 17:29 | 63.70202 | 9.60934 | 35 ft | 17 kts | 126° |
| 2026-04-20 17:29 | 63.70094 | 9.61091 | 37 ft | 20 kts | 147° |
| 2026-04-20 17:29 | 63.69994 | 9.61246 | 36 ft | 8 kts | 138° |
| 2026-04-20 17:30 | 63.70143 | 9.60993 | 36 ft | 0 kts | 143° |
| 2026-04-20 17:30 | 63.69749 | 9.61601 | 35 ft | 0 kts | 95° |
| 2026-04-20 17:30 | 63.69749 | 9.61602 | 34 ft | 0 kts | 95° |